Time;durP1;ratioP1;P1;durP2;ratioP2;P2;SDS_P1;SDS_P2;PMS_P1;PMS_P2;Temp;Humidity;BMP_temperature;BMP_pressure;BME280_temperature;BME280_humidity;BME280_pressure;Samples;Min_cycle;Max_cycle;Signal;HPM_P1;HPM_P2
2021/11/28 00:01:13;;;;;;;184.82;63.72;;;9.80;99.90;;;;;;5021224;28;20501;-53
2021/11/28 00:03:39;;;;;;;323.80;64.93;;;9.80;99.90;;;;;;5022298;28;20092;-52
2021/11/28 00:06:13;;;;;;;254.98;65.65;;;9.80;99.90;;;;;;5020985;28;20046;-53
2021/11/28 00:11:27;;;;;;;275.58;66.40;;;9.70;99.90;;;;;;5021825;28;20228;-53
2021/11/28 00:16:28;;;;;;;264.38;64.00;;;9.70;99.90;;;;;;5021469;28;20072;-52
2021/11/28 00:18:54;;;;;;;303.60;69.30;;;9.60;99.90;;;;;;5024366;28;20041;-53
2021/11/28 00:21:20;;;;;;;247.25;67.15;;;9.50;99.90;;;;;;5038942;28;20033;-53
2021/11/28 00:23:46;;;;;;;251.52;65.13;;;9.50;99.90;;;;;;5022969;28;20382;-53
2021/11/28 00:26:13;;;;;;;195.82;54.75;;;9.40;99.90;;;;;;5022835;28;20022;-53
2021/11/28 00:28:39;;;;;;;401.25;71.80;;;9.10;99.90;;;;;;5023489;28;20017;-53
2021/11/28 00:31:05;;;;;;;324.95;65.80;;;9.10;99.90;;;;;;5029863;28;20588;-52
2021/11/28 00:33:31;;;;;;;369.20;68.22;;;9.20;99.90;;;;;;5025951;28;20357;-52
2021/11/28 00:35:57;;;;;;;308.30;66.30;;;9.10;99.90;;;;;;5023491;28;20489;-52
2021/11/28 00:38:23;;;;;;;415.05;70.00;;;9.10;99.90;;;;;;5022078;28;20034;-53
2021/11/28 00:40:49;;;;;;;350.92;63.03;;;9.10;99.90;;;;;;5023525;28;20076;-53
2021/11/28 00:43:16;;;;;;;343.13;61.65;;;8.90;99.90;;;;;;5023495;28;20172;-52
2021/11/28 00:45:42;;;;;;;452.90;75.35;;;8.90;99.90;;;;;;5021512;28;20065;-53
2021/11/28 00:48:07;;;;;;;358.75;66.55;;;8.90;99.90;;;;;;5025149;28;20135;-52
2021/11/28 00:53:08;;;;;;;373.77;65.60;;;8.90;99.90;;;;;;5020700;28;20075;-52
2021/11/28 00:55:34;;;;;;;296.27;58.55;;;8.90;99.90;;;;;;5023516;28;20129;-53
2021/11/28 00:58:00;;;;;;;323.13;64.53;;;8.90;99.90;;;;;;5020420;28;20211;-52
2021/11/28 01:00:26;;;;;;;347.08;62.75;;;8.80;99.90;;;;;;5023019;28;20128;-52
2021/11/28 01:02:52;;;;;;;342.13;62.80;;;8.80;99.90;;;;;;5022351;28;20056;-52
2021/11/28 01:05:18;;;;;;;242.98;52.10;;;8.80;99.90;;;;;;5013265;28;20076;-52
2021/11/28 01:07:44;;;;;;;300.30;59.15;;;8.70;99.90;;;;;;5011103;28;20033;-52
2021/11/28 01:10:11;;;;;;;452.48;71.32;;;8.70;99.90;;;;;;5010566;28;20041;-52
2021/11/28 01:12:38;;;;;;;339.65;58.35;;;8.80;99.90;;;;;;5010704;28;20061;-52
2021/11/28 01:15:06;;;;;;;417.55;67.50;;;8.70;99.90;;;;;;5010888;28;20166;-52
2021/11/28 01:17:34;;;;;;;418.90;64.63;;;8.80;99.90;;;;;;5010724;28;20524;-52
2021/11/28 01:20:00;;;;;;;461.38;70.45;;;8.80;99.90;;;;;;5010844;28;20038;-53
2021/11/28 01:22:26;;;;;;;422.08;64.75;;;8.80;99.90;;;;;;5010835;28;20192;-53
2021/11/28 01:24:52;;;;;;;281.60;58.05;;;8.80;99.90;;;;;;5010783;28;20113;-52
2021/11/28 01:27:18;;;;;;;210.82;39.28;;;8.60;99.90;;;;;;5010704;28;20192;-53
2021/11/28 01:29:44;;;;;;;455.45;67.82;;;8.50;99.90;;;;;;5010606;28;20026;-52
2021/11/28 01:32:11;;;;;;;491.13;75.72;;;8.50;99.90;;;;;;5010547;28;20095;-52
2021/11/28 01:34:37;;;;;;;369.13;66.22;;;8.60;99.90;;;;;;5010588;28;20097;-52
2021/11/28 01:37:05;;;;;;;468.85;71.07;;;8.60;99.90;;;;;;5010181;28;20038;-52
2021/11/28 01:39:31;;;;;;;371.38;65.32;;;8.60;99.90;;;;;;5010450;28;20108;-53
2021/11/28 01:41:57;;;;;;;403.25;73.53;;;8.70;99.90;;;;;;5010442;28;20085;-53
2021/11/28 01:44:22;;;;;;;432.33;68.75;;;8.60;99.90;;;;;;5009932;28;20536;-53
2021/11/28 01:46:48;;;;;;;431.23;66.40;;;8.60;99.90;;;;;;5010588;28;20038;-53
2021/11/28 01:49:15;;;;;;;354.67;58.10;;;8.60;99.90;;;;;;5012847;28;20033;-53
2021/11/28 01:51:41;;;;;;;520.88;70.65;;;8.60;99.90;;;;;;5012608;28;20474;-52
2021/11/28 01:54:13;;;;;;;416.90;64.45;;;8.60;99.90;;;;;;5012534;28;20470;-52
2021/11/28 01:56:45;;;;;;;443.23;61.88;;;8.60;99.90;;;;;;5012513;28;20484;-52
2021/11/28 01:59:12;;;;;;;538.92;69.65;;;8.60;99.90;;;;;;5012528;28;20042;-53
2021/11/28 02:01:38;;;;;;;375.05;53.55;;;8.60;99.90;;;;;;5027034;28;20497;-52
2021/11/28 02:04:07;;;;;;;427.10;63.08;;;8.60;99.90;;;;;;5011503;28;20557;-53
2021/11/28 02:06:33;;;;;;;289.85;48.95;;;8.60;99.90;;;;;;5012603;28;20033;-53
2021/11/28 02:08:59;;;;;;;423.52;60.80;;;8.60;99.90;;;;;;5012507;28;20032;-53
2021/11/28 02:11:25;;;;;;;473.85;64.15;;;8.60;99.90;;;;;;5012872;28;20030;-53
2021/11/28 02:13:51;;;;;;;379.77;61.70;;;8.60;99.90;;;;;;5012480;28;20084;-53
2021/11/28 02:16:17;;;;;;;426.30;64.65;;;8.60;99.90;;;;;;5012535;28;20474;-53
2021/11/28 02:18:43;;;;;;;469.00;68.32;;;8.60;99.90;;;;;;5012378;28;20056;-53
2021/11/28 02:21:11;;;;;;;515.95;73.10;;;8.70;99.90;;;;;;5020090;28;20029;-52
2021/11/28 02:23:39;;;;;;;350.73;56.63;;;8.70;99.90;;;;;;5032208;28;20025;-53
2021/11/28 02:26:07;;;;;;;321.50;58.53;;;8.60;99.90;;;;;;5018748;28;20037;-53
2021/11/28 02:28:34;;;;;;;331.75;58.63;;;8.80;99.90;;;;;;5012301;28;20014;-53
2021/11/28 02:31:00;;;;;;;385.42;59.28;;;8.80;99.90;;;;;;5012671;28;20029;-53
2021/11/28 02:33:27;;;;;;;443.60;65.90;;;8.80;99.90;;;;;;5012356;28;20067;-53
2021/11/28 02:35:53;;;;;;;487.67;64.70;;;8.90;99.90;;;;;;5012157;28;20029;-53
2021/11/28 02:38:19;;;;;;;325.75;61.20;;;9.00;99.90;;;;;;5012480;28;20041;-53
2021/11/28 02:40:45;;;;;;;443.17;60.67;;;9.00;99.90;;;;;;5012152;28;20030;-52
2021/11/28 02:43:11;;;;;;;542.28;70.18;;;9.00;99.90;;;;;;5009885;28;20041;-54
2021/11/28 02:45:38;;;;;;;634.00;75.45;;;9.00;99.90;;;;;;5012124;28;20026;-53
2021/11/28 02:48:10;;;;;;;542.58;72.05;;;8.80;99.90;;;;;;5012077;28;20034;-53
2021/11/28 02:50:36;;;;;;;483.38;57.67;;;9.00;99.90;;;;;;5012086;28;20113;-53
2021/11/28 02:53:05;;;;;;;543.90;68.63;;;9.00;99.90;;;;;;5012121;28;20025;-53
2021/11/28 02:55:38;;;;;;;571.58;70.82;;;9.00;99.90;;;;;;5012138;28;20030;-53
2021/11/28 02:58:05;;;;;;;524.53;66.22;;;9.00;99.90;;;;;;5015867;28;20026;-53
2021/11/28 03:00:33;;;;;;;571.58;72.70;;;9.00;99.90;;;;;;5015697;28;20029;-53
2021/11/28 03:02:59;;;;;;;384.35;58.38;;;9.10;99.90;;;;;;5015810;28;20029;-53
2021/11/28 03:05:25;;;;;;;540.78;67.38;;;9.00;99.90;;;;;;5013417;28;20046;-52
2021/11/28 03:07:51;;;;;;;465.50;61.17;;;9.00;99.90;;;;;;5015464;28;20057;-52
2021/11/28 03:10:34;;;;;;;542.45;68.75;;;9.10;99.90;;;;;;5013148;28;20069;-53
2021/11/28 03:13:09;;;;;;;487.20;64.32;;;9.10;99.90;;;;;;5015343;28;20049;-52
2021/11/28 03:15:36;;;;;;;473.30;60.70;;;9.20;99.90;;;;;;5015396;28;20037;-52
2021/11/28 03:18:09;;;;;;;468.63;59.95;;;9.10;99.90;;;;;;5015148;28;20036;-53
2021/11/28 03:20:35;;;;;;;494.02;61.65;;;9.20;99.90;;;;;;5015545;28;20105;-52
2021/11/28 03:23:01;;;;;;;349.17;47.90;;;9.20;99.90;;;;;;5015250;28;20152;-52
2021/11/28 03:25:32;;;;;;;399.70;58.85;;;9.10;99.90;;;;;;5015369;28;20369;-52
2021/11/28 03:27:58;;;;;;;281.50;50.83;;;9.10;99.90;;;;;;5015110;28;20548;-52
2021/11/28 03:30:23;;;;;;;145.27;44.80;;;9.10;99.90;;;;;;5015273;28;20201;-52
2021/11/28 03:32:50;;;;;;;146.25;50.35;;;9.20;99.90;;;;;;5014878;28;20034;-53
2021/11/28 03:35:16;;;;;;;149.45;48.65;;;9.20;99.90;;;;;;5014814;28;20474;-52
2021/11/28 03:37:42;;;;;;;134.85;48.20;;;9.30;99.90;;;;;;5015084;28;20038;-52
2021/11/28 03:40:09;;;;;;;120.32;47.42;;;9.40;99.90;;;;;;5013625;28;20030;-52
2021/11/28 03:42:35;;;;;;;110.68;46.28;;;9.40;99.90;;;;;;5014792;28;20068;-52
2021/11/28 03:45:04;;;;;;;119.72;48.65;;;9.40;99.90;;;;;;5015287;28;20381;-52
2021/11/28 03:47:30;;;;;;;109.40;46.28;;;9.50;99.90;;;;;;4995619;28;20589;-52
2021/11/28 03:49:56;;;;;;;113.13;47.42;;;9.40;99.90;;;;;;5012693;28;20124;-53
2021/11/28 03:52:22;;;;;;;100.63;44.50;;;9.50;99.90;;;;;;5012501;28;20038;-52
2021/11/28 03:54:47;;;;;;;102.40;44.17;;;9.50;99.90;;;;;;5014850;28;20108;-53
2021/11/28 03:57:13;;;;;;;95.25;42.78;;;9.50;99.90;;;;;;5014449;28;20022;-53
2021/11/28 03:59:39;;;;;;;97.10;43.13;;;9.60;99.90;;;;;;5012323;28;20073;-53
2021/11/28 04:02:05;;;;;;;96.57;42.97;;;9.60;99.90;;;;;;5014482;28;20087;-53
2021/11/28 04:04:30;;;;;;;95.68;44.15;;;9.60;99.90;;;;;;5012339;28;20125;-52
2021/11/28 04:06:56;;;;;;;85.60;39.85;;;9.60;99.90;;;;;;5028507;28;20474;-53
2021/11/28 04:09:22;;;;;;;98.97;43.17;;;9.60;99.90;;;;;;5028737;28;20061;-54
2021/11/28 04:11:48;;;;;;;83.53;41.55;;;9.60;99.90;;;;;;5014394;28;20057;-53
2021/11/28 04:14:16;;;;;;;92.72;41.13;;;9.60;99.90;;;;;;5028805;28;20040;-53
2021/11/28 04:16:42;;;;;;;80.95;41.28;;;9.60;99.90;;;;;;5014067;28;20034;-52
2021/11/28 04:19:08;;;;;;;88.57;40.53;;;9.60;99.90;;;;;;5014156;28;20038;-52
2021/11/28 04:21:34;;;;;;;79.20;41.42;;;9.60;99.90;;;;;;5014065;28;20033;-53
2021/11/28 04:23:59;;;;;;;84.60;40.35;;;9.70;99.90;;;;;;5028642;28;20367;-52
2021/11/28 04:26:25;;;;;;;90.78;40.90;;;9.50;99.90;;;;;;5012073;28;20078;-52
2021/11/28 04:28:51;;;;;;;81.55;40.72;;;9.30;99.90;;;;;;5014123;28;20034;-53
2021/11/28 04:31:17;;;;;;;80.97;40.67;;;9.00;99.90;;;;;;5014162;28;20032;-53
2021/11/28 04:33:42;;;;;;;83.30;41.60;;;9.10;99.90;;;;;;5013741;28;20034;-52
2021/11/28 04:36:08;;;;;;;80.60;36.95;;;8.90;99.90;;;;;;5028350;28;20030;-53
2021/11/28 04:38:34;;;;;;;84.20;39.30;;;8.60;99.90;;;;;;5012363;28;20038;-53
2021/11/28 04:41:00;;;;;;;83.80;39.83;;;8.50;99.90;;;;;;5013925;28;20271;-52
2021/11/28 04:43:26;;;;;;;80.85;40.95;;;8.20;99.90;;;;;;5011630;28;20128;-52
2021/11/28 04:45:52;;;;;;;77.68;41.38;;;7.90;99.90;;;;;;5011186;28;20061;-52
2021/11/28 04:48:17;;;;;;;84.25;42.08;;;8.00;99.90;;;;;;5013689;28;20474;-53
2021/11/28 04:50:44;;;;;;;78.63;39.38;;;8.20;99.90;;;;;;5013516;28;20030;-52
2021/11/28 04:53:09;;;;;;;74.43;36.17;;;8.30;99.90;;;;;;5011478;28;20097;-53
2021/11/28 04:55:36;;;;;;;117.53;32.78;;;8.40;99.90;;;;;;5013596;28;20026;-52
2021/11/28 04:58:02;;;;;;;400.50;39.38;;;8.20;99.90;;;;;;5013393;28;20041;-52
2021/11/28 05:00:29;;;;;;;398.35;41.75;;;7.80;99.90;;;;;;5013388;28;20038;-52
2021/11/28 05:02:56;;;;;;;259.33;33.47;;;7.70;99.90;;;;;;5013326;28;20060;-52
2021/11/28 05:05:23;;;;;;;132.02;22.45;;;7.50;99.90;;;;;;5013280;28;20022;-52
2021/11/28 05:07:49;;;;;;;25.90;10.52;;;6.80;99.90;;;;;;5013299;28;20039;-53
2021/11/28 05:10:15;;;;;;;90.28;18.83;;;6.40;99.90;;;;;;5013864;28;20056;-53
2021/11/28 05:12:41;;;;;;;75.82;24.83;;;6.10;99.90;;;;;;5032755;28;20389;-52
2021/11/28 05:15:08;;;;;;;82.78;28.27;;;6.10;99.90;;;;;;5031445;28;20084;-52
2021/11/28 05:17:33;;;;;;;83.53;29.35;;;6.20;99.90;;;;;;5030724;28;20053;-52
2021/11/28 05:20:00;;;;;;;43.58;20.95;;;6.40;99.90;;;;;;5026806;28;20049;-52
2021/11/28 05:22:26;;;;;;;44.03;23.60;;;6.30;99.90;;;;;;5024674;28;20026;-52
2021/11/28 05:24:52;;;;;;;31.02;16.40;;;6.10;99.90;;;;;;4962790;28;20034;-53
2021/11/28 05:27:18;;;;;;;41.30;23.83;;;6.00;99.90;;;;;;5024785;28;20023;-54
2021/11/28 05:29:45;;;;;;;54.63;31.00;;;6.00;99.90;;;;;;5024722;28;20684;-53
2021/11/28 05:32:11;;;;;;;36.67;22.60;;;6.10;99.90;;;;;;5025613;28;20641;-53
2021/11/28 05:34:37;;;;;;;35.22;20.38;;;6.10;99.90;;;;;;5022557;28;20036;-53
2021/11/28 05:37:03;;;;;;;43.00;25.02;;;6.10;99.90;;;;;;5026518;28;20091;-52
2021/11/28 05:39:29;;;;;;;32.95;17.48;;;6.00;99.90;;;;;;5030558;28;20100;-52
2021/11/28 05:41:55;;;;;;;52.70;26.98;;;6.00;99.90;;;;;;5023498;28;20033;-52
2021/11/28 05:44:21;;;;;;;42.20;22.75;;;6.00;99.90;;;;;;5030493;28;20489;-55
2021/11/28 05:46:47;;;;;;;37.80;22.55;;;5.90;99.90;;;;;;5044743;28;20046;-51
2021/11/28 05:49:14;;;;;;;46.25;26.27;;;5.80;99.90;;;;;;5013776;28;20053;-51
2021/11/28 05:51:40;;;;;;;57.78;30.85;;;5.90;99.90;;;;;;5032691;28;20039;-52
2021/11/28 05:54:06;;;;;;;57.78;33.40;;;6.00;99.90;;;;;;5030301;28;20118;-51
2021/11/28 05:56:32;;;;;;;57.60;31.10;;;6.10;99.90;;;;;;5032365;28;20036;-53
2021/11/28 05:58:57;;;;;;;34.97;19.88;;;6.10;99.90;;;;;;5031085;28;20104;-51
2021/11/28 06:01:24;;;;;;;57.78;32.97;;;5.90;99.90;;;;;;5032340;28;20039;-50
2021/11/28 06:03:49;;;;;;;53.53;27.83;;;6.00;99.90;;;;;;5032366;28;20511;-51
2021/11/28 06:06:16;;;;;;;55.25;30.88;;;5.90;99.90;;;;;;5032355;28;20034;-51
2021/11/28 06:08:42;;;;;;;60.53;33.30;;;6.10;99.90;;;;;;5032257;28;20064;-53
2021/11/28 06:11:08;;;;;;;52.50;30.27;;;6.10;99.90;;;;;;5032555;28;20025;-50
2021/11/28 06:13:34;;;;;;;55.92;34.20;;;6.10;99.90;;;;;;5031231;28;20033;-53
2021/11/28 06:16:00;;;;;;;47.90;28.10;;;6.10;99.90;;;;;;5032179;28;20042;-53
2021/11/28 06:18:26;;;;;;;47.53;30.35;;;6.10;99.90;;;;;;5030202;28;20049;-51
2021/11/28 06:20:51;;;;;;;45.92;29.13;;;6.20;99.90;;;;;;5046683;28;20176;-51
2021/11/28 06:23:17;;;;;;;52.45;29.92;;;6.20;99.90;;;;;;5032330;28;20033;-53
2021/11/28 06:25:43;;;;;;;82.68;46.50;;;6.20;99.90;;;;;;5032207;28;20052;-54
2021/11/28 06:28:09;;;;;;;52.72;34.50;;;6.40;99.90;;;;;;5032042;28;20147;-53
2021/11/28 06:30:35;;;;;;;58.03;35.58;;;6.70;99.90;;;;;;5048497;28;20504;-50
2021/11/28 06:33:01;;;;;;;68.07;39.30;;;6.50;99.90;;;;;;5035921;28;20099;-51
2021/11/28 06:35:27;;;;;;;86.13;50.65;;;6.50;99.90;;;;;;5000792;28;20080;-52
2021/11/28 06:37:53;;;;;;;48.47;33.65;;;7.50;99.90;;;;;;5035918;28;20552;-51
2021/11/28 06:40:19;;;;;;;41.20;30.23;;;8.50;99.90;;;;;;5050467;28;20038;-51
2021/11/28 06:42:44;;;;;;;58.95;36.03;;;9.10;99.90;;;;;;5035826;28;20041;-53
2021/11/28 06:45:11;;;;;;;69.32;33.20;;;9.10;99.90;;;;;;5035963;28;20130;-52
2021/11/28 06:47:38;;;;;;;52.33;35.85;;;9.30;99.90;;;;;;5035538;28;20049;-54
2021/11/28 06:50:04;;;;;;;122.60;33.80;;;9.20;99.90;;;;;;5035510;28;20120;-52
2021/11/28 06:52:30;;;;;;;126.68;29.75;;;9.00;99.90;;;;;;5035658;28;20481;-53
2021/11/28 06:54:56;;;;;;;78.18;27.38;;;8.20;99.90;;;;;;5035501;28;20032;-51
2021/11/28 06:57:21;;;;;;;49.55;26.15;;;8.00;99.90;;;;;;5035550;28;20469;-51
2021/11/28 06:59:47;;;;;;;57.45;28.35;;;7.80;99.90;;;;;;5035498;28;20037;-50
2021/11/28 07:02:13;;;;;;;62.72;27.60;;;7.70;99.90;;;;;;5050043;28;20547;-52
2021/11/28 07:04:40;;;;;;;53.17;27.42;;;7.70;99.90;;;;;;5035468;28;20025;-50
2021/11/28 07:07:06;;;;;;;50.17;32.60;;;7.70;99.90;;;;;;5035726;28;20037;-51
2021/11/28 07:09:32;;;;;;;43.92;29.15;;;8.10;99.90;;;;;;5035293;28;20439;-51
2021/11/28 07:11:58;;;;;;;39.80;27.38;;;9.50;99.90;;;;;;5033818;28;20037;-51
2021/11/28 07:14:24;;;;;;;35.97;26.67;;;11.30;99.90;;;;;;5033140;28;20077;-52
2021/11/28 07:16:50;;;;;;;39.58;28.80;;;12.70;99.90;;;;;;5035585;28;20120;-54
2021/11/28 07:19:15;;;;;;;36.95;27.38;;;13.50;99.90;;;;;;5049692;28;20065;-51
2021/11/28 07:21:41;;;;;;;38.40;30.00;;;15.00;99.90;;;;;;5049667;28;20112;-52
2021/11/28 07:24:07;;;;;;;40.35;31.23;;;16.80;99.90;;;;;;5034955;28;20124;-53
2021/11/28 07:26:32;;;;;;;43.28;33.03;;;17.20;99.90;;;;;;5035008;28;20033;-53
2021/11/28 07:28:58;;;;;;;45.75;37.75;;;17.00;99.90;;;;;;5035164;28;20035;-53
2021/11/28 07:31:24;;;;;;;42.67;33.40;;;16.20;99.90;;;;;;5035071;28;20107;-54
2021/11/28 07:33:50;;;;;;;40.22;30.88;;;16.80;99.90;;;;;;5032802;28;20056;-52
2021/11/28 07:36:16;;;;;;;40.92;30.17;;;17.40;99.90;;;;;;5032627;28;20041;-53
2021/11/28 07:38:44;;;;;;;40.38;32.55;;;16.90;99.90;;;;;;5032604;28;20053;-54
2021/11/28 07:41:11;;;;;;;40.97;30.67;;;17.10;99.90;;;;;;5032549;28;20123;-51
2021/11/28 07:43:37;;;;;;;42.33;32.22;;;16.40;99.90;;;;;;5034097;28;20104;-53
2021/11/28 07:46:03;;;;;;;39.33;28.48;;;15.30;99.90;;;;;;5034352;28;20057;-53
2021/11/28 07:48:30;;;;;;;39.88;28.05;;;14.90;99.90;;;;;;5034875;28;20037;-50
2021/11/28 07:50:58;;;;;;;36.97;27.90;;;13.50;99.90;;;;;;5034496;28;20489;-54
2021/11/28 07:53:24;;;;;;;36.63;27.67;;;13.40;99.90;;;;;;5034380;28;20037;-54
2021/11/28 07:55:50;;;;;;;44.00;28.85;;;14.80;99.90;;;;;;5034610;28;20116;-53
2021/11/28 07:58:16;;;;;;;38.92;31.25;;;14.20;99.90;;;;;;5034186;28;20194;-54
2021/11/28 08:00:41;;;;;;;38.00;30.48;;;15.00;99.90;;;;;;5032402;28;20033;-53
2021/11/28 08:03:07;;;;;;;36.90;29.23;;;16.00;99.90;;;;;;5032185;28;20382;-52
2021/11/28 08:05:33;;;;;;;35.53;29.88;;;;;;;;;;5048849;28;20038;-55
2021/11/28 08:07:59;;;;;;;47.97;35.20;;;19.20;99.90;;;;;;5034232;28;20559;-52
2021/11/28 08:10:26;;;;;;;34.42;28.42;;;21.00;99.90;;;;;;5034335;28;20029;-50
2021/11/28 08:12:52;;;;;;;34.08;28.42;;;20.80;99.00;;;;;;5032178;28;20041;-50
2021/11/28 08:15:19;;;;;;;36.15;30.67;;;20.70;98.80;;;;;;5033816;28;20031;-51
2021/11/28 08:17:48;;;;;;;31.02;26.45;;;;;;;;;;5031762;28;20064;-51
2021/11/28 08:20:15;;;;;;;32.17;28.70;;;21.80;95.90;;;;;;5025906;28;20033;-51
2021/11/28 08:22:41;;;;;;;30.15;26.70;;;21.00;96.00;;;;;;5015668;28;20029;-50
2021/11/28 08:25:09;;;;;;;29.00;25.90;;;20.60;95.90;;;;;;5020061;28;20030;-51
2021/11/28 08:27:35;;;;;;;29.85;26.75;;;20.50;96.20;;;;;;5023238;28;20108;-53
2021/11/28 08:30:05;;;;;;;31.92;28.55;;;20.20;96.90;;;;;;5035540;28;20126;-51
2021/11/28 08:32:31;;;;;;;28.48;24.48;;;20.80;97.00;;;;;;5024574;28;20060;-53
2021/11/28 08:34:57;;;;;;;28.50;25.48;;;21.70;95.60;;;;;;5021811;28;20053;-54
2021/11/28 08:37:22;;;;;;;43.22;31.15;;;21.60;95.20;;;;;;5011447;28;20050;-55
2021/11/28 08:39:48;;;;;;;35.47;28.73;;;21.70;94.10;;;;;;5013644;28;20036;-48
2021/11/28 08:42:14;;;;;;;33.97;27.30;;;;;;;;;;5029978;28;20564;-52
2021/11/28 08:44:40;;;;;;;30.10;26.00;;;;;;;;;;5026260;28;20037;-54
2021/11/28 08:47:07;;;;;;;30.20;24.25;;;24.00;93.50;;;;;;5021217;28;20503;-51
2021/11/28 08:49:33;;;;;;;34.20;27.88;;;22.70;92.40;;;;;;5030278;28;20179;-51
2021/11/28 08:51:59;;;;;;;28.15;24.58;;;22.90;93.00;;;;;;5033380;28;20120;-51
2021/11/28 08:54:25;;;;;;;30.85;27.63;;;22.00;92.80;;;;;;5022662;28;20053;-50
2021/11/28 08:56:51;;;;;;;31.90;28.70;;;22.90;92.80;;;;;;5027493;28;20045;-51
2021/11/28 08:59:18;;;;;;;29.52;26.27;;;22.50;92.00;;;;;;5031837;28;20037;-50
2021/11/28 09:01:44;;;;;;;35.53;31.58;;;22.70;92.60;;;;;;5028946;28;20017;-51
2021/11/28 09:04:10;;;;;;;29.20;26.33;;;;;;;;;;5042165;28;20056;-50
2021/11/28 09:06:36;;;;;;;26.90;24.55;;;25.00;90.70;;;;;;5020185;28;20029;-53
2021/11/28 09:09:03;;;;;;;23.13;20.92;;;24.90;87.90;;;;;;5024202;28;20028;-52
2021/11/28 09:11:29;;;;;;;28.75;25.65;;;;;;;;;;5026231;28;20416;-51
2021/11/28 09:13:55;;;;;;;22.08;20.38;;;25.60;93.90;;;;;;5025786;28;20037;-49
2021/11/28 09:16:21;;;;;;;24.25;22.15;;;25.00;83.10;;;;;;5024110;28;20041;-59
2021/11/28 09:21:15;;;;;;;22.60;20.67;;;24.00;84.60;;;;;;5023292;28;20781;-51
2021/11/28 09:26:27;;;;;;;25.92;24.27;;;22.70;85.90;;;;;;5021418;28;20052;-54
2021/11/28 09:28:54;;;;;;;23.63;21.65;;;21.80;88.00;;;;;;5027019;28;20048;-53
2021/11/28 09:31:20;;;;;;;31.73;29.63;;;23.00;86.60;;;;;;5019703;28;20041;-55
2021/11/28 09:33:46;;;;;;;21.38;19.70;;;22.40;87.20;;;;;;5022548;28;20018;-54
2021/11/28 09:36:13;;;;;;;22.95;21.02;;;22.40;87.40;;;;;;5022509;28;20037;-54
2021/11/28 09:38:38;;;;;;;25.27;23.30;;;23.30;87.30;;;;;;5021757;28;20040;-54
2021/11/28 09:41:11;;;;;;;27.55;25.50;;;23.30;87.20;;;;;;5027511;28;20038;-52
2021/11/28 09:43:41;;;;;;;36.17;33.97;;;23.20;86.20;;;;;;5022366;28;20034;-54
2021/11/28 09:46:09;;;;;;;27.45;25.55;;;23.90;85.70;;;;;;5034134;28;20041;-54
2021/11/28 09:48:35;;;;;;;33.53;31.52;;;;;;;;;;5021180;28;20405;-53
2021/11/28 09:51:02;;;;;;;19.20;17.63;;;;;;;;;;5019085;28;20056;-53
2021/11/28 09:53:31;;;;;;;14.18;10.90;;;25.50;96.50;;;;;;5022640;28;20071;-54
2021/11/28 09:55:57;;;;;;;35.55;33.40;;;24.90;83.30;;;;;;5021285;28;20037;-54
2021/11/28 09:58:24;;;;;;;38.15;35.95;;;24.80;83.00;;;;;;5020673;28;20108;-55
2021/11/28 10:00:50;;;;;;;15.70;14.38;;;23.90;84.20;;;;;;5029146;28;20511;-55
2021/11/28 10:03:15;;;;;;;25.33;23.30;;;24.10;84.60;;;;;;5031993;28;20165;-55
2021/11/28 10:05:42;;;;;;;19.38;16.77;;;;;;;;;;5034167;28;20036;-53
2021/11/28 10:08:08;;;;;;;13.32;11.18;;;24.90;83.60;;;;;;5036128;28;20350;-54
2021/11/28 10:10:34;;;;;;;10.35;7.60;;;24.20;84.10;;;;;;5036111;28;20038;-55
2021/11/28 10:13:02;;;;;;;9.63;7.43;;;22.90;86.20;;;;;;5031883;28;20535;-53
2021/11/28 10:15:30;;;;;;;9.85;7.30;;;;;;;;;;5016561;28;20100;-53
2021/11/28 10:17:58;;;;;;;9.50;7.30;;;21.70;99.90;;;;;;5021022;28;20060;-50
2021/11/28 10:20:26;;;;;;;12.07;10.85;;;;;;;;;;5025285;28;20064;-52
2021/11/28 10:22:53;;;;;;;8.80;8.02;;;23.30;90.90;;;;;;5029921;28;20516;-51
2021/11/28 10:25:21;;;;;;;10.85;9.93;;;;;;;;;;5027871;28;20034;-50
2021/11/28 10:27:50;;;;;;;8.98;8.27;;;;;;;;;;5045578;28;20045;-49
2021/11/28 10:30:27;;;;;;;8.13;7.03;;;23.80;99.90;;;;;;5036409;28;20045;-50
2021/11/28 10:32:54;;;;;;;7.00;6.35;;;23.70;84.60;;;;;;5027953;28;20073;-54
2021/11/28 10:35:21;;;;;;;13.05;9.88;;;23.10;82.20;;;;;;5035480;28;20047;-50
2021/11/28 10:37:49;;;;;;;10.15;9.35;;;23.20;88.90;;;;;;5027752;28;20040;-53
2021/11/28 10:40:42;;;;;;;12.38;11.07;;;;;;;;;;5042508;28;20392;-49
2021/11/28 10:43:09;;;;;;;8.80;6.47;;;24.30;82.50;;;;;;5033905;28;20046;-50
2021/11/28 10:45:47;;;;;;;3.97;3.58;;;23.90;80.90;;;;;;5003919;28;20136;-50
2021/11/28 10:48:14;;;;;;;5.05;3.97;;;22.50;82.50;;;;;;5032098;28;20599;-50
2021/11/28 10:50:41;;;;;;;20.33;14.20;;;21.40;83.40;;;;;;4999297;28;20046;-52
2021/11/28 10:53:20;;;;;;;24.23;16.85;;;21.20;85.10;;;;;;5006490;28;20491;-48
2021/11/28 10:55:53;;;;;;;31.30;21.65;;;21.00;85.20;;;;;;4992558;28;20045;-49
2021/11/28 10:58:21;;;;;;;31.58;19.45;;;20.30;86.40;;;;;;4973543;28;20225;-50
2021/11/28 11:00:50;;;;;;;31.90;22.15;;;20.00;94.30;;;;;;4972854;28;20034;-49
2021/11/28 11:03:16;;;;;;;49.75;29.02;;;20.50;96.50;;;;;;4991539;28;20137;-51
2021/11/28 11:05:43;;;;;;;35.83;24.23;;;20.10;88.40;;;;;;5001660;28;20050;-50
2021/11/28 11:08:09;;;;;;;12.88;8.05;;;20.40;88.40;;;;;;4995894;28;20141;-49
2021/11/28 11:10:35;;;;;;;222.18;126.43;;;20.50;88.10;;;;;;5000838;28;20043;-51
2021/11/28 11:13:04;;;;;;;127.70;71.07;;;;;;;;;;4985154;28;20048;-52
2021/11/28 11:15:38;;;;;;;69.47;48.15;;;21.30;93.10;;;;;;4993634;28;20049;-49
2021/11/28 11:18:08;;;;;;;67.95;47.22;;;21.40;86.60;;;;;;4999758;28;20506;-49
2021/11/28 11:20:40;;;;;;;30.77;22.80;;;22.00;88.50;;;;;;4998820;28;20093;-46
2021/11/28 11:23:31;;;;;;;33.75;28.23;;;22.60;86.00;;;;;;5032193;28;20025;-49
2021/11/28 11:26:11;;;;;;;11.15;9.95;;;21.90;84.80;;;;;;5033578;28;20045;-48
2021/11/28 11:29:04;;;;;;;6.25;4.35;;;22.00;85.10;;;;;;5043738;28;20119;-47
2021/11/28 11:31:30;;;;;;;;;;;21.50;85.70;;;;;;5034263;28;20497;-46
2021/11/28 11:33:56;;;;;;;9.95;6.97;;;21.60;86.40;;;;;;5042003;28;19909;-45
2021/11/28 11:36:43;;;;;;;21.00;15.10;;;21.50;87.00;;;;;;5059336;28;20174;-52
2021/11/28 11:39:09;;;;;;;6.05;4.45;;;20.90;85.80;;;;;;5037105;28;20120;-49
2021/11/28 11:41:35;;;;;;;11.05;6.75;;;20.10;87.70;;;;;;5026399;28;20494;-49
2021/11/28 11:44:01;;;;;;;8.77;6.32;;;19.70;85.60;;;;;;5029949;28;20041;-49
2021/11/28 11:46:27;;;;;;;13.48;8.77;;;19.50;89.80;;;;;;5027986;28;20100;-48
2021/11/28 11:48:52;;;;;;;17.02;11.32;;;19.50;90.60;;;;;;5034142;28;20481;-49
2021/11/28 11:51:18;;;;;;;14.90;10.07;;;19.40;90.50;;;;;;5014783;28;20492;-49
2021/11/28 11:53:44;;;;;;;30.98;17.13;;;19.40;91.00;;;;;;5025643;28;20485;-49
2021/11/28 11:56:17;;;;;;;28.85;15.57;;;19.60;89.50;;;;;;5027503;28;20045;-49
2021/11/28 11:58:58;;;;;;;14.68;10.77;;;19.70;86.70;;;;;;5031058;28;20041;-49
2021/11/28 12:01:27;;;;;;;9.32;7.28;;;20.30;85.80;;;;;;5029827;28;20397;-49
2021/11/28 12:03:55;;;;;;;6.15;3.45;;;20.40;88.90;;;;;;5026800;28;20072;-49
2021/11/28 12:06:53;;;;;;;8.02;5.82;;;20.30;88.40;;;;;;5032043;28;20030;-49
2021/11/28 12:09:26;;;;;;;13.95;10.18;;;20.80;86.20;;;;;;5030810;28;20117;-49
2021/11/28 12:11:54;;;;;;;18.58;12.73;;;21.00;86.60;;;;;;4969244;28;20046;-49
2021/11/28 12:14:20;;;;;;;14.20;9.57;;;20.90;85.40;;;;;;4972649;28;20152;-49
2021/11/28 12:16:45;;;;;;;9.88;5.88;;;21.60;86.40;;;;;;4966972;28;20050;-49
2021/11/28 12:19:37;;;;;;;14.13;11.40;;;22.00;83.40;;;;;;4970111;28;20045;-49
2021/11/28 12:22:04;;;;;;;3.25;1.88;;;21.80;81.50;;;;;;4920465;29;20032;-50
2021/11/28 12:24:30;;;;;;;3.17;2.22;;;22.00;82.80;;;;;;4928239;29;20427;-48
2021/11/28 12:27:02;;;;;;;6.45;4.22;;;22.10;81.30;;;;;;4917094;29;20048;-49
2021/11/28 12:29:45;;;;;;;1.55;1.08;;;22.30;80.90;;;;;;4932448;29;20523;-50
2021/11/28 12:32:23;;;;;;;8.55;4.55;;;;;;;;;;4936221;29;20118;-47
2021/11/28 12:34:55;;;;;;;10.18;4.35;;;;;;;;;;4923416;29;20039;-47
2021/11/28 12:37:27;;;;;;;;;;;23.70;98.00;;;;;;4923184;29;20495;-49
2021/11/28 12:39:55;;;;;;;0.37;0.37;;;23.90;78.10;;;;;;4926605;29;19963;-48
2021/11/28 12:42:23;;;;;;;5.35;2.38;;;23.80;77.30;;;;;;4928425;28;20288;-51
2021/11/28 12:44:49;;;;;;;1.20;0.70;;;23.60;76.40;;;;;;4991399;28;20042;-51
2021/11/28 12:47:15;;;;;;;2.20;1.40;;;23.40;77.80;;;;;;4998361;28;20409;-49
2021/11/28 12:49:43;;;;;;;1.98;0.90;;;22.90;77.10;;;;;;5005849;28;20038;-50
2021/11/28 12:52:15;;;;;;;1.13;0.45;;;22.60;80.40;;;;;;5011413;28;20367;-49